createdAt,value
2023-03-24T00:01:20.245Z,50.88
2023-03-24T00:03:52.636Z,50.80
2023-03-24T00:06:22.926Z,50.88
2023-03-24T00:08:51.530Z,50.91
2023-03-24T00:11:21.456Z,51.03
2023-03-24T00:13:50.869Z,50.69
2023-03-24T00:16:22.179Z,50.92
2023-03-24T00:18:54.409Z,50.97
2023-03-24T00:21:24.887Z,50.92
2023-03-24T00:23:54.750Z,51.02
2023-03-24T00:26:25.647Z,51.31
2023-03-24T00:28:55.083Z,51.43
2023-03-24T00:31:24.913Z,51.62
2023-03-24T00:33:54.056Z,51.46
2023-03-24T00:36:23.366Z,52.01
2023-03-24T00:38:52.245Z,51.81
2023-03-24T00:41:21.198Z,52.04
2023-03-24T00:43:50.214Z,52.45
2023-03-24T00:46:28.397Z,52.61
2023-03-24T00:49:02.972Z,52.76
2023-03-24T00:51:39.499Z,52.43
2023-03-24T00:54:09.468Z,52.49
2023-03-24T00:56:40.957Z,52.48
2023-03-24T00:59:10.690Z,52.62
2023-03-24T01:01:41.396Z,52.69
2023-03-24T01:04:10.678Z,52.63
2023-03-24T01:06:40.155Z,52.77
2023-03-24T01:09:08.427Z,52.81
2023-03-24T01:11:38.944Z,52.74
2023-03-24T01:14:08.811Z,52.74
2023-03-24T01:16:37.900Z,52.68
2023-03-24T01:19:06.928Z,52.71
2023-03-24T01:21:36.997Z,52.92
2023-03-24T01:24:06.015Z,53.46
2023-03-24T01:26:34.745Z,53.38
2023-03-24T01:29:03.279Z,53.33
2023-03-24T01:31:31.934Z,54.09
2023-03-24T01:34:00.550Z,54.14
2023-03-24T01:36:28.822Z,54.03
2023-03-24T01:38:58.644Z,54.12
2023-03-24T01:41:28.505Z,54.72
2023-03-24T01:43:57.375Z,54.56
2023-03-24T01:46:29.773Z,54.45
2023-03-24T01:49:06.604Z,54.56
2023-03-24T01:51:41.493Z,54.48
2023-03-24T01:54:25.952Z,55.02
2023-03-24T01:57:00.246Z,54.55
2023-03-24T01:59:30.890Z,54.76
2023-03-24T02:02:22.290Z,54.51
2023-03-24T02:05:01.320Z,54.89
2023-03-24T02:07:37.037Z,54.97
2023-03-24T02:10:10.233Z,55.05
2023-03-24T02:12:38.616Z,55.14
2023-03-24T02:15:09.033Z,55.20
2023-03-24T02:17:57.450Z,55.69
2023-03-24T02:20:41.637Z,55.88
2023-03-24T02:23:17.596Z,55.98
2023-03-24T02:25:48.843Z,56.48
2023-03-24T02:28:29.309Z,56.77
2023-03-24T02:31:08.797Z,56.85
2023-03-24T02:33:40.708Z,56.66
2023-03-24T02:36:22.003Z,56.95
2023-03-24T02:39:09.519Z,57.19
2023-03-24T02:41:41.168Z,56.94
2023-03-24T02:44:28.584Z,56.97
2023-03-24T02:47:06.387Z,57.30
2023-03-24T02:49:44.418Z,57.28
2023-03-24T02:52:12.762Z,57.39
2023-03-24T02:54:42.474Z,57.46
2023-03-24T02:57:17.615Z,57.35
2023-03-24T03:00:20.186Z,57.40
2023-03-24T03:03:09.949Z,57.26
2023-03-24T03:05:49.497Z,57.22
2023-03-24T03:08:21.325Z,57.16
2023-03-24T03:10:50.661Z,57.59
2023-03-24T03:13:28.217Z,57.41
2023-03-24T03:15:59.261Z,57.67
2023-03-24T03:18:39.586Z,58.01
2023-03-24T03:21:11.213Z,57.88
2023-03-24T03:23:46.349Z,58.08
2023-03-24T03:26:17.705Z,58.19
2023-03-24T03:28:50.605Z,57.92
2023-03-24T03:31:30.035Z,57.87
2023-03-24T03:34:18.779Z,58.14
2023-03-24T03:36:47.063Z,58.11
2023-03-24T03:39:20.972Z,58.22
2023-03-24T03:41:49.147Z,58.45
2023-03-24T03:44:17.443Z,58.73
2023-03-24T03:46:46.436Z,58.74
2023-03-24T03:49:19.214Z,58.79
2023-03-24T03:51:47.601Z,59.26
2023-03-24T03:54:16.921Z,59.35
2023-03-24T03:56:48.697Z,59.47
2023-03-24T03:59:34.861Z,59.74
2023-03-24T04:02:26.249Z,59.41
2023-03-24T04:05:21.057Z,59.40
2023-03-24T04:08:08.575Z,59.53
2023-03-24T04:10:57.029Z,59.46
2023-03-24T04:13:32.766Z,60.17
2023-03-24T04:16:40.303Z,60.48
2023-03-24T04:19:26.156Z,60.42
2023-03-24T04:22:17.439Z,60.76
2023-03-24T04:24:45.818Z,60.54
2023-03-24T04:27:17.475Z,60.16
2023-03-24T04:29:55.481Z,60.09
2023-03-24T04:32:28.095Z,59.80
2023-03-24T04:35:02.066Z,60.16
2023-03-24T04:37:56.550Z,60.08
2023-03-24T04:40:33.219Z,60.20
2023-03-24T04:43:04.415Z,59.88
2023-03-24T04:45:33.763Z,60.23
2023-03-24T04:48:28.027Z,59.92
2023-03-24T04:51:12.872Z,60.25
2023-03-24T04:53:56.881Z,60.36
2023-03-24T04:56:28.638Z,60.73
2023-03-24T04:59:07.525Z,60.60
2023-03-24T05:01:37.889Z,60.59
2023-03-24T05:04:27.342Z,60.83
2023-03-24T05:06:56.143Z,61.04
2023-03-24T05:09:26.559Z,61.28
2023-03-24T05:12:17.503Z,61.31
2023-03-24T05:15:19.711Z,61.63
2023-03-24T05:17:49.767Z,61.51
2023-03-24T05:20:18.319Z,61.09
2023-03-24T05:22:50.593Z,60.93
2023-03-24T05:25:19.086Z,61.34
2023-03-24T05:27:47.874Z,61.87
2023-03-24T05:30:27.326Z,62.11
2023-03-24T05:33:01.949Z,61.84
2023-03-24T05:35:30.841Z,62.05
2023-03-24T05:37:59.518Z,62.21
2023-03-24T05:40:28.014Z,62.31
2023-03-24T05:43:12.460Z,62.03
2023-03-24T05:45:45.454Z,61.92
2023-03-24T05:48:20.497Z,62.10
2023-03-24T05:51:14.863Z,62.19
2023-03-24T05:53:43.605Z,62.41
2023-03-24T05:56:17.462Z,62.45
2023-03-24T05:59:17.988Z,62.32
2023-03-24T06:02:08.290Z,62.42
2023-03-24T06:04:52.036Z,62.17
2023-03-24T06:07:26.774Z,62.15
2023-03-24T06:09:58.330Z,61.97
2023-03-24T06:12:27.077Z,62.09
2023-03-24T06:15:01.431Z,62.00
2023-03-24T06:17:30.953Z,61.91
2023-03-24T06:20:05.335Z,61.91
2023-03-24T06:22:36.573Z,61.88
2023-03-24T06:25:09.267Z,61.63
2023-03-24T06:27:38.462Z,61.37
2023-03-24T06:30:08.677Z,61.07
2023-03-24T06:32:38.537Z,60.95
2023-03-24T06:35:07.512Z,60.70
2023-03-24T06:37:47.766Z,60.74
2023-03-24T06:40:17.806Z,60.49
2023-03-24T06:42:55.994Z,60.43
2023-03-24T06:45:24.798Z,60.46
2023-03-24T06:47:57.363Z,60.45
2023-03-24T06:50:27.386Z,60.34
2023-03-24T06:52:56.290Z,60.16
2023-03-24T06:55:25.176Z,60.22
2023-03-24T06:57:54.395Z,60.33
2023-03-24T07:00:38.871Z,60.29
2023-03-24T07:03:36.928Z,60.13
2023-03-24T07:06:33.131Z,60.31
2023-03-24T07:09:09.887Z,60.30
2023-03-24T07:11:38.788Z,60.38
2023-03-24T07:14:07.783Z,60.18
2023-03-24T07:16:37.289Z,60.50
2023-03-24T07:19:28.811Z,60.36
2023-03-24T07:22:13.461Z,60.16
2023-03-24T07:25:04.914Z,59.98
2023-03-24T07:27:42.875Z,60.07
2023-03-24T07:30:11.913Z,59.95
2023-03-24T07:32:46.033Z,59.81
2023-03-24T07:35:14.373Z,59.74
2023-03-24T07:37:42.972Z,59.53
2023-03-24T07:40:12.948Z,59.06
2023-03-24T07:42:44.947Z,58.79
2023-03-24T07:45:36.009Z,58.46
2023-03-24T07:48:04.980Z,58.37
2023-03-24T07:50:36.417Z,57.92
2023-03-24T07:53:12.667Z,57.41
2023-03-24T07:55:41.661Z,57.13
2023-03-24T07:58:15.070Z,57.09
2023-03-24T08:00:53.685Z,56.88
2023-03-24T08:03:28.679Z,56.37
2023-03-24T08:06:15.932Z,55.57
2023-03-24T08:08:52.010Z,55.22
2023-03-24T08:11:21.675Z,54.91
2023-03-24T08:13:49.780Z,54.85
2023-03-24T08:16:18.701Z,54.59
2023-03-24T08:18:48.902Z,54.50
2023-03-24T08:21:25.914Z,54.13
2023-03-24T08:23:54.369Z,53.32
2023-03-24T08:26:26.670Z,52.45
2023-03-24T08:28:54.929Z,50.51
2023-03-24T08:31:23.423Z,48.71
2023-03-24T08:33:53.942Z,48.64
2023-03-24T08:36:26.633Z,48.74
2023-03-24T08:38:55.781Z,48.76
2023-03-24T08:41:44.662Z,48.54
2023-03-24T08:44:13.166Z,47.10
2023-03-24T08:46:42.010Z,46.73
2023-03-24T08:49:10.864Z,46.51
2023-03-24T08:51:39.142Z,45.74
2023-03-24T08:54:07.955Z,44.44
2023-03-24T08:56:36.127Z,44.59
2023-03-24T08:59:06.027Z,45.12
2023-03-24T09:01:35.661Z,43.80
2023-03-24T09:04:04.223Z,43.29
2023-03-24T09:06:32.921Z,43.41
2023-03-24T09:09:00.998Z,42.47
2023-03-24T09:11:29.185Z,42.69
2023-03-24T09:13:57.987Z,41.84
2023-03-24T09:16:26.896Z,41.56
2023-03-24T09:18:55.361Z,40.10
2023-03-24T09:21:23.946Z,39.99
2023-03-24T09:23:52.430Z,39.24
2023-03-24T09:26:21.644Z,38.61
2023-03-24T09:28:49.911Z,37.74
2023-03-24T09:31:18.443Z,36.23
2023-03-24T09:33:47.394Z,36.12
2023-03-24T09:36:15.690Z,36.11
2023-03-24T09:38:44.190Z,34.29
2023-03-24T09:41:20.536Z,33.65
2023-03-24T09:43:55.323Z,33.19
2023-03-24T09:46:29.512Z,33.52
2023-03-24T09:48:58.102Z,32.96
2023-03-24T09:51:30.362Z,32.46
2023-03-24T09:54:04.764Z,30.98
2023-03-24T09:56:33.886Z,29.86
2023-03-24T09:59:08.007Z,30.08
2023-03-24T10:01:36.576Z,29.28
2023-03-24T10:04:05.593Z,27.71
2023-03-24T10:06:42.198Z,27.27
2023-03-24T10:09:10.602Z,28.74
2023-03-24T10:11:47.320Z,27.25
2023-03-24T10:14:25.092Z,27.19
2023-03-24T10:17:03.360Z,27.25
2023-03-24T10:19:43.973Z,26.37
2023-03-24T10:22:21.461Z,26.09
2023-03-24T10:24:56.197Z,26.77
2023-03-24T10:27:24.476Z,27.34
2023-03-24T10:29:55.008Z,26.68
2023-03-24T10:32:25.967Z,26.76
2023-03-24T10:35:07.740Z,25.93
2023-03-24T10:37:36.949Z,24.51
2023-03-24T10:40:12.800Z,23.61
2023-03-24T10:42:40.977Z,24.21
2023-03-24T10:45:14.325Z,25.02
2023-03-24T10:47:42.999Z,24.41
2023-03-24T10:50:14.975Z,24.00
2023-03-24T10:52:46.665Z,23.94
2023-03-24T10:55:26.472Z,24.51
2023-03-24T10:58:00.099Z,24.41
2023-03-24T11:00:35.948Z,24.55
2023-03-24T11:03:08.554Z,24.53
2023-03-24T11:05:38.085Z,24.23
2023-03-24T11:08:26.120Z,23.18
2023-03-24T11:10:59.508Z,23.55
2023-03-24T11:13:32.507Z,22.19
2023-03-24T11:16:14.949Z,21.77
2023-03-24T11:18:57.612Z,21.67
2023-03-24T11:21:28.155Z,20.21
2023-03-24T11:24:01.681Z,20.68
2023-03-24T11:26:41.037Z,20.03
2023-03-24T11:29:18.896Z,19.94
2023-03-24T11:31:52.078Z,20.60
2023-03-24T11:34:25.496Z,20.00
2023-03-24T11:36:56.274Z,19.66
2023-03-24T11:39:25.843Z,20.47
2023-03-24T11:42:03.135Z,19.60
2023-03-24T11:44:40.300Z,19.32
2023-03-24T11:47:11.654Z,18.67
2023-03-24T11:49:50.651Z,18.28
2023-03-24T11:52:29.084Z,17.26
2023-03-24T11:54:57.377Z,16.81
2023-03-24T11:57:40.493Z,17.22
2023-03-24T12:00:22.304Z,17.49
2023-03-24T12:02:56.480Z,17.12
2023-03-24T12:05:42.661Z,16.59
2023-03-24T12:08:13.941Z,15.89
2023-03-24T12:10:42.018Z,16.34
2023-03-24T12:13:18.979Z,16.18
2023-03-24T12:16:08.690Z,16.50
2023-03-24T12:18:39.619Z,16.15
2023-03-24T12:21:27.240Z,16.29
2023-03-24T12:23:59.901Z,15.95
2023-03-24T12:26:28.320Z,16.17
2023-03-24T12:29:08.659Z,14.96
2023-03-24T12:31:36.782Z,14.35
2023-03-24T12:34:17.091Z,14.38
2023-03-24T12:37:04.714Z,14.07
2023-03-24T12:39:35.829Z,14.12
2023-03-24T12:42:04.040Z,13.93
2023-03-24T12:44:32.328Z,13.29
2023-03-24T12:47:16.362Z,13.39
2023-03-24T12:49:44.650Z,12.74
2023-03-24T12:52:29.204Z,13.43
2023-03-24T12:55:03.124Z,13.46
2023-03-24T12:57:35.947Z,12.85
2023-03-24T13:00:12.226Z,12.51
2023-03-24T13:02:45.621Z,12.76
2023-03-24T13:05:46.803Z,12.98
2023-03-24T13:08:19.782Z,12.25
2023-03-24T13:10:48.783Z,12.58
2023-03-24T13:13:29.059Z,12.83
2023-03-24T13:16:09.325Z,11.79
2023-03-24T13:18:40.034Z,11.92
2023-03-24T13:21:12.096Z,11.29
2023-03-24T13:23:44.078Z,10.84
2023-03-24T13:26:31.482Z,11.04
2023-03-24T13:29:18.386Z,10.97
2023-03-24T13:31:51.007Z,11.68
2023-03-24T13:34:33.077Z,10.63
2023-03-24T13:37:06.820Z,11.39
2023-03-24T13:39:36.488Z,11.36
2023-03-24T13:42:05.361Z,11.19
2023-03-24T13:44:38.982Z,10.45
2023-03-24T13:47:15.575Z,10.91
2023-03-24T13:49:53.997Z,10.45
2023-03-24T13:52:45.224Z,10.96
2023-03-24T13:55:16.409Z,10.73
2023-03-24T13:57:52.582Z,10.58
2023-03-24T14:00:23.337Z,10.54
2023-03-24T14:02:55.641Z,10.78
2023-03-24T14:05:26.830Z,10.36
2023-03-24T14:08:01.981Z,10.50
2023-03-24T14:10:41.695Z,10.32
2023-03-24T14:13:12.883Z,11.14
2023-03-24T14:15:57.264Z,11.53
2023-03-24T14:18:26.074Z,11.85
2023-03-24T14:20:57.703Z,12.26
2023-03-24T14:23:41.814Z,12.67
2023-03-24T14:26:31.787Z,12.94
2023-03-24T14:29:00.535Z,12.97
2023-03-24T14:31:30.843Z,13.47
2023-03-24T14:34:21.499Z,13.55
2023-03-24T14:37:00.119Z,13.88
2023-03-24T14:39:36.794Z,13.73
2023-03-24T14:42:24.321Z,14.12
2023-03-24T14:44:56.274Z,14.48
2023-03-24T14:47:32.913Z,15.03
2023-03-24T14:50:04.070Z,15.47
2023-03-24T14:52:40.182Z,16.10
2023-03-24T14:55:13.247Z,16.60
2023-03-24T14:57:46.184Z,17.17
2023-03-24T15:00:17.603Z,17.52
2023-03-24T15:02:48.179Z,18.07
2023-03-24T15:05:25.714Z,18.17
2023-03-24T15:08:03.537Z,18.56
2023-03-24T15:10:33.741Z,19.00
2023-03-24T15:13:01.996Z,19.17
2023-03-24T15:15:30.785Z,19.47
2023-03-24T15:17:59.131Z,19.67
2023-03-24T15:20:27.586Z,20.02
2023-03-24T15:22:56.194Z,20.02
2023-03-24T15:25:28.283Z,20.78
2023-03-24T15:27:57.956Z,20.66
2023-03-24T15:30:26.457Z,20.95
2023-03-24T15:32:55.129Z,21.04
2023-03-24T15:35:23.974Z,20.97
2023-03-24T15:37:53.662Z,20.57
2023-03-24T15:40:31.234Z,20.66
2023-03-24T15:43:00.890Z,20.82
2023-03-24T15:45:34.176Z,21.32
2023-03-24T15:48:05.929Z,21.64
2023-03-24T15:50:41.264Z,21.94
2023-03-24T15:53:16.081Z,22.04
2023-03-24T15:55:44.871Z,22.43
2023-03-24T15:58:24.624Z,22.89
2023-03-24T16:00:54.922Z,23.10
2023-03-24T16:03:26.902Z,23.20
2023-03-24T16:05:56.197Z,23.66
2023-03-24T16:08:41.367Z,23.74
2023-03-24T16:11:12.233Z,24.13
2023-03-24T16:13:42.451Z,24.08
2023-03-24T16:16:11.074Z,24.14
2023-03-24T16:18:40.565Z,24.51
2023-03-24T16:21:13.951Z,24.47
2023-03-24T16:23:45.402Z,24.43
2023-03-24T16:26:14.715Z,24.49
2023-03-24T16:28:43.300Z,24.42
2023-03-24T16:31:18.152Z,24.70
2023-03-24T16:33:47.147Z,24.77
2023-03-24T16:36:15.618Z,24.81
2023-03-24T16:38:45.231Z,24.97
2023-03-24T16:41:15.664Z,25.11
2023-03-24T16:43:44.650Z,25.30
2023-03-24T16:46:17.575Z,25.17
2023-03-24T16:48:46.541Z,25.55
2023-03-24T16:51:15.759Z,25.80
2023-03-24T16:53:45.463Z,25.95
2023-03-24T16:56:15.071Z,26.13
2023-03-24T16:58:43.658Z,26.56
2023-03-24T17:01:29.879Z,26.99
2023-03-24T17:03:59.250Z,27.87
2023-03-24T17:06:28.875Z,28.50
2023-03-24T17:08:57.368Z,28.89
2023-03-24T17:11:30.505Z,29.68
2023-03-24T17:14:04.841Z,29.59
2023-03-24T17:16:36.793Z,29.27
2023-03-24T17:19:08.497Z,30.27
2023-03-24T17:21:38.930Z,30.59
2023-03-24T17:24:11.032Z,31.25
2023-03-24T17:26:40.405Z,30.84
2023-03-24T17:29:12.796Z,30.81
2023-03-24T17:31:43.528Z,31.58
2023-03-24T17:34:21.530Z,31.78
2023-03-24T17:36:51.116Z,31.95
2023-03-24T17:39:20.464Z,32.37
2023-03-24T17:41:49.156Z,32.58
2023-03-24T17:44:17.606Z,33.01
2023-03-24T17:46:46.147Z,32.92
2023-03-24T17:49:17.753Z,33.35
2023-03-24T17:51:46.039Z,33.42
2023-03-24T17:54:19.337Z,33.74
2023-03-24T17:56:47.889Z,33.97
2023-03-24T17:59:16.406Z,34.06
2023-03-24T18:01:44.598Z,34.71
2023-03-24T18:04:13.107Z,35.20
2023-03-24T18:06:42.575Z,34.90
2023-03-24T18:09:10.763Z,35.86
2023-03-24T18:11:39.244Z,35.78
2023-03-24T18:14:09.415Z,35.79
2023-03-24T18:16:39.533Z,35.85
2023-03-24T18:19:08.386Z,35.57
2023-03-24T18:21:36.838Z,35.45
2023-03-24T18:24:06.680Z,35.40
2023-03-24T18:26:35.198Z,35.32
2023-03-24T18:29:03.872Z,35.11
2023-03-24T18:31:33.021Z,35.19
2023-03-24T18:34:01.288Z,35.08
2023-03-24T18:36:31.387Z,35.05
2023-03-24T18:38:59.778Z,34.97
2023-03-24T18:41:28.752Z,34.92
2023-03-24T18:43:58.483Z,34.84
2023-03-24T18:46:27.465Z,35.10
2023-03-24T18:48:55.953Z,34.94
2023-03-24T18:51:28.361Z,34.94
2023-03-24T18:53:56.509Z,35.02
2023-03-24T18:56:24.993Z,34.95
2023-03-24T18:58:53.352Z,35.18
2023-03-24T19:01:26.369Z,35.11
2023-03-24T19:03:54.960Z,35.22
2023-03-24T19:06:26.439Z,35.09
2023-03-24T19:08:54.603Z,35.38
2023-03-24T19:11:23.499Z,35.31
2023-03-24T19:13:52.209Z,35.40
2023-03-24T19:16:20.836Z,35.40
2023-03-24T19:18:50.919Z,35.42
2023-03-24T19:21:19.899Z,35.37
2023-03-24T19:23:49.951Z,35.52
2023-03-24T19:26:20.846Z,35.30
2023-03-24T19:28:48.939Z,35.47
2023-03-24T19:31:18.706Z,35.58
2023-03-24T19:33:47.448Z,35.36
2023-03-24T19:36:18.391Z,35.39
2023-03-24T19:38:46.883Z,35.71
2023-03-24T19:41:16.151Z,35.55
2023-03-24T19:43:44.563Z,35.67
2023-03-24T19:46:12.875Z,35.88
2023-03-24T19:48:43.889Z,35.99
2023-03-24T19:51:12.294Z,36.18
2023-03-24T19:53:40.617Z,36.01
2023-03-24T19:56:08.938Z,36.17
2023-03-24T19:58:37.130Z,36.18
2023-03-24T20:01:05.464Z,36.30
2023-03-24T20:03:35.773Z,36.24
2023-03-24T20:06:10.559Z,36.43
2023-03-24T20:08:39.104Z,36.50
2023-03-24T20:11:08.549Z,36.23
2023-03-24T20:13:37.142Z,36.08
2023-03-24T20:16:05.844Z,36.23
2023-03-24T20:18:34.855Z,36.00
2023-03-24T20:21:06.556Z,36.32
2023-03-24T20:23:34.977Z,36.45
2023-03-24T20:26:03.377Z,36.37
2023-03-24T20:28:31.643Z,36.62
2023-03-24T20:31:01.213Z,36.44
2023-03-24T20:33:29.949Z,36.86
2023-03-24T20:35:58.671Z,36.72
2023-03-24T20:38:26.932Z,37.48
2023-03-24T20:40:59.254Z,37.47
2023-03-24T20:43:27.993Z,37.82
2023-03-24T20:45:57.607Z,38.12
2023-03-24T20:48:26.846Z,38.42
2023-03-24T20:50:55.296Z,38.56
2023-03-24T20:53:25.107Z,39.37
2023-03-24T20:56:01.060Z,39.74
2023-03-24T20:58:31.083Z,39.81
2023-03-24T21:00:59.909Z,40.31
2023-03-24T21:03:28.212Z,40.28
2023-03-24T21:05:56.437Z,40.24
2023-03-24T21:08:24.623Z,40.67
2023-03-24T21:10:56.595Z,40.87
2023-03-24T21:13:34.790Z,41.66
2023-03-24T21:16:09.259Z,42.11
2023-03-24T21:18:38.618Z,42.69
2023-03-24T21:21:07.019Z,43.13
2023-03-24T21:23:39.375Z,42.89
2023-03-24T21:26:09.814Z,42.87
2023-03-24T21:28:38.814Z,43.03
2023-03-24T21:31:08.283Z,43.44
2023-03-24T21:33:40.172Z,42.86
2023-03-24T21:36:09.147Z,43.48
2023-03-24T21:38:37.874Z,43.72
2023-03-24T21:41:06.666Z,43.62
2023-03-24T21:43:35.465Z,43.49
2023-03-24T21:46:04.262Z,43.65
2023-03-24T21:48:40.280Z,43.81
2023-03-24T21:51:08.802Z,43.95
2023-03-24T21:53:37.497Z,43.93
2023-03-24T21:56:06.356Z,43.81
2023-03-24T21:58:35.078Z,43.65
2023-03-24T22:01:03.539Z,43.74
2023-03-24T22:03:34.708Z,43.65
2023-03-24T22:06:04.034Z,43.72
2023-03-24T22:08:32.711Z,43.96
2023-03-24T22:11:04.273Z,44.40
2023-03-24T22:13:33.168Z,44.41
2023-03-24T22:16:03.255Z,44.54
2023-03-24T22:18:32.485Z,44.51
2023-03-24T22:21:04.791Z,44.33
2023-03-24T22:23:34.583Z,44.59
2023-03-24T22:26:13.507Z,44.38
2023-03-24T22:28:42.557Z,44.49
2023-03-24T22:31:12.440Z,44.48
2023-03-24T22:33:41.219Z,44.60
2023-03-24T22:36:09.813Z,44.60
2023-03-24T22:38:37.984Z,44.60
2023-03-24T22:41:07.486Z,45.04
2023-03-24T22:43:36.529Z,45.29
2023-03-24T22:46:06.059Z,45.34
2023-03-24T22:48:34.384Z,46.29
2023-03-24T22:51:02.559Z,46.29
2023-03-24T22:53:30.736Z,46.25
2023-03-24T22:55:58.821Z,46.01
2023-03-24T22:58:27.300Z,45.80
2023-03-24T23:00:56.741Z,45.86
2023-03-24T23:03:25.185Z,45.77
2023-03-24T23:05:53.495Z,45.89
2023-03-24T23:08:21.764Z,46.01
2023-03-24T23:10:50.045Z,45.95
2023-03-24T23:13:18.526Z,46.44
2023-03-24T23:15:48.002Z,46.23
2023-03-24T23:18:16.937Z,46.49
2023-03-24T23:20:46.206Z,46.64
2023-03-24T23:23:14.416Z,47.27
2023-03-24T23:25:44.081Z,47.23
2023-03-24T23:28:13.047Z,47.79
2023-03-24T23:30:41.523Z,48.59
2023-03-24T23:33:14.909Z,48.17
2023-03-24T23:35:43.227Z,48.30
2023-03-24T23:38:11.621Z,48.36
2023-03-24T23:40:40.023Z,49.16
2023-03-24T23:43:08.554Z,49.80
2023-03-24T23:45:37.187Z,49.58
2023-03-24T23:48:06.690Z,49.23
2023-03-24T23:50:34.838Z,48.89
2023-03-24T23:53:03.014Z,49.14
2023-03-24T23:55:32.120Z,49.22
2023-03-24T23:58:01.220Z,49.19
